Time;durP1;ratioP1;P1;durP2;ratioP2;P2;SDS_P1;SDS_P2;PMS_P1;PMS_P2;Temp;Humidity;BMP_temperature;BMP_pressure;BME280_temperature;BME280_humidity;BME280_pressure;Samples;Min_cycle;Max_cycle;Signal;HPM_P1;HPM_P2
2023/11/04 00:01:51;;;;;;;6.25;2.47;;;;;;;-146.27;81.20;83581.59;5023408;28;20120;-70
2023/11/04 00:04:17;;;;;;;5.82;2.25;;;;;;;-146.27;82.00;83593.66;5020631;28;20025;-69
2023/11/04 00:06:43;;;;;;;5.32;2.40;;;;;;;-146.27;81.04;83543.44;5017110;28;20033;-70
2023/11/04 00:09:08;;;;;;;4.72;2.75;;;;;;;-146.27;81.21;83571.56;5025968;28;20033;-70
2023/11/04 00:11:34;;;;;;;3.80;2.40;;;;;;;-146.27;81.03;83565.53;5026396;28;20063;-70
2023/11/04 00:13:59;;;;;;;3.90;2.53;;;;;;;-146.27;82.04;83567.53;5021092;28;20486;-72
2023/11/04 00:16:25;;;;;;;6.63;2.47;;;;;;;-146.27;81.05;83519.31;5012171;28;20168;-70
2023/11/04 00:18:50;;;;;;;8.05;2.78;;;;;;;-146.27;81.57;83557.50;5012726;28;20028;-70
2023/11/04 00:21:16;;;;;;;4.78;2.83;;;;;;;-146.27;81.24;83505.25;5017106;28;20056;-71
2023/11/04 00:23:41;;;;;;;8.50;2.92;;;;;;;-146.27;80.60;83487.16;5015358;28;20029;-68
2023/11/04 00:26:07;;;;;;;5.25;2.80;;;;;;;-146.27;80.48;83467.06;5012866;28;20084;-69
2023/11/04 00:28:33;;;;;;;5.65;3.28;;;;;;;-146.27;81.63;83537.41;5025946;28;20496;-68
2023/11/04 00:30:59;;;;;;;4.53;2.60;;;;;;;-146.27;80.83;83469.09;5042094;28;20026;-72
2023/11/04 00:33:24;;;;;;;7.15;2.50;;;;;;;-146.27;80.81;83428.91;5038646;28;20449;-72
2023/11/04 00:35:50;;;;;;;3.60;2.53;;;;;;;-146.27;81.38;83505.25;5023608;28;20401;-72
2023/11/04 00:38:15;;;;;;;5.38;2.38;;;;;;;-146.27;82.49;83549.47;5038639;28;20033;-72
2023/11/04 00:40:43;;;;;;;8.73;2.70;;;;;;;-146.27;81.49;83473.09;5013612;28;20110;-72
2023/11/04 00:43:09;;;;;;;3.65;2.60;;;;;;;-146.27;82.11;83537.41;5028070;28;20020;-72
2023/11/04 00:45:35;;;;;;;6.93;2.40;;;;;;;-146.27;81.78;83446.97;5019132;28;20490;-72
2023/11/04 00:48:00;;;;;;;11.80;3.63;;;;;;;-146.27;82.45;83517.31;5036801;28;20017;-72
2023/11/04 00:50:26;;;;;;;8.30;2.83;;;;;;;-146.27;82.00;83517.31;5035448;28;20030;-72
2023/11/04 00:52:52;;;;;;;3.55;2.75;;;;;;;-146.27;81.68;83479.13;5029615;28;20032;-72
2023/11/04 00:55:18;;;;;;;4.40;2.70;;;;;;;-146.27;81.94;83493.19;5019978;28;20033;-72
2023/11/04 00:57:43;;;;;;;5.93;3.00;;;;;;;-146.27;82.08;83495.22;5012984;28;20087;-72
2023/11/04 01:00:10;;;;;;;8.38;3.10;;;;;;;-146.27;81.66;83453.00;5029084;28;20041;-72
2023/11/04 01:02:35;;;;;;;7.60;3.08;;;;;;;-146.27;82.10;83485.16;5014852;28;20076;-73
2023/11/04 01:05:01;;;;;;;6.55;3.22;;;;;;;-146.27;82.89;83487.16;5018225;28;20497;-72
2023/11/04 01:07:26;;;;;;;4.22;2.78;;;;;;;-146.27;82.53;83444.97;5019416;28;20026;-72
2023/11/04 01:09:51;;;;;;;4.85;3.25;;;;;;;-146.27;83.08;83489.19;5020483;28;20029;-73
2023/11/04 01:12:17;;;;;;;5.57;2.83;;;;;;;-146.27;82.14;83465.06;5030467;28;20367;-72
2023/11/04 01:14:42;;;;;;;4.82;2.80;;;;;;;-146.27;81.91;83489.19;5029174;28;20029;-72
2023/11/04 01:17:08;;;;;;;5.55;3.22;;;;;;;-146.27;81.54;83410.81;5027462;28;20608;-72
2023/11/04 01:19:34;;;;;;;5.85;3.35;;;;;;;-146.27;81.87;83422.88;5024432;28;20421;-71
2023/11/04 01:22:00;;;;;;;4.63;3.08;;;;;;;-146.27;82.10;83420.88;5011452;28;20112;-72
2023/11/04 01:24:25;;;;;;;7.13;3.65;;;;;;;-146.27;81.43;83408.81;5037088;28;20065;-71
2023/11/04 01:26:53;;;;;;;9.40;3.80;;;;;;;-146.27;81.98;83438.94;5015887;28;20017;-72
2023/11/04 01:29:20;;;;;;;7.88;3.88;;;;;;;-146.27;82.35;83440.94;5016806;28;20093;-71
2023/11/04 01:31:45;;;;;;;5.90;3.08;;;;;;;-146.27;82.96;83463.06;5018674;28;20021;-71
2023/11/04 01:34:11;;;;;;;8.32;4.03;;;;;;;-146.27;82.51;83434.94;5012992;28;20512;-71
2023/11/04 01:36:36;;;;;;;8.10;3.85;;;;;;;-146.27;83.37;83449.00;5043518;28;20087;-72
2023/11/04 01:39:02;;;;;;;9.70;3.45;;;;;;;-146.27;83.87;83473.09;5036210;28;20433;-72
2023/11/04 01:41:28;;;;;;;10.82;4.15;;;;;;;-146.27;84.11;83511.28;5012950;28;20034;-71
2023/11/04 01:43:53;;;;;;;6.88;3.58;;;;;;;-146.27;83.92;83453.00;5038682;28;20026;-71
2023/11/04 01:46:21;;;;;;;10.50;4.05;;;;;;;-146.27;83.63;83436.94;5035483;28;20086;-72
2023/11/04 01:48:47;;;;;;;6.72;3.63;;;;;;;-146.27;83.96;83461.06;5030145;28;20677;-72
2023/11/04 01:51:14;;;;;;;9.77;4.30;;;;;;;-146.27;84.12;83507.25;5013754;28;20029;-71
2023/11/04 01:53:46;;;;;;;8.15;3.58;;;;;;;-146.27;83.65;83477.13;5019322;28;20440;-71
2023/11/04 01:56:13;;;;;;;6.15;3.90;;;;;;;-146.27;83.20;83418.84;5031852;28;20029;-72
2023/11/04 01:58:44;;;;;;;7.43;4.25;;;;;;;-146.27;83.75;83453.00;5038899;28;20473;-72
2023/11/04 02:01:12;;;;;;;9.05;4.25;;;;;;;-146.27;85.34;83499.22;5032424;28;20023;-72
2023/11/04 02:03:39;;;;;;;9.20;4.60;;;;;;;-146.27;84.72;83459.03;5032442;28;20056;-72
2023/11/04 02:06:06;;;;;;;9.93;4.72;;;;;;;-146.27;85.57;83434.94;5037483;28;20028;-71
2023/11/04 02:08:34;;;;;;;9.73;4.10;;;;;;;-146.27;84.52;83396.75;5035520;28;20063;-71
2023/11/04 02:11:00;;;;;;;11.05;5.18;;;;;;;-146.27;85.96;83491.19;5038500;28;20036;-73
2023/11/04 02:13:26;;;;;;;9.07;4.80;;;;;;;-146.27;85.50;83473.09;5039979;28;20033;-72
2023/11/04 02:15:51;;;;;;;10.55;4.60;;;;;;;-146.27;85.69;83451.00;5029793;28;20032;-72
2023/11/04 02:18:17;;;;;;;8.98;5.53;;;;;;;-146.27;85.72;83451.00;5038036;28;20046;-72
2023/11/04 02:20:46;;;;;;;11.65;5.20;;;;;;;-146.27;85.91;83463.06;5026039;28;20547;-72
2023/11/04 02:23:13;;;;;;;6.78;4.90;;;;;;;-146.27;85.67;83449.00;5014924;28;20037;-72
2023/11/04 02:25:39;;;;;;;8.52;5.45;;;;;;;-146.27;85.48;83392.72;5035537;28;20029;-72
2023/11/04 02:28:04;;;;;;;10.70;5.50;;;;;;;-146.27;86.30;83473.09;5032625;28;20073;-72
2023/11/04 02:30:30;;;;;;;11.43;5.25;;;;;;;-146.27;86.18;83457.03;5041502;28;20481;-72
2023/11/04 02:32:56;;;;;;;12.85;4.70;;;;;;;-146.27;86.22;83432.91;5046249;28;20069;-71
2023/11/04 02:35:21;;;;;;;11.57;5.57;;;;;;;-146.27;86.63;83499.22;5046159;28;20059;-72
2023/11/04 02:37:50;;;;;;;7.28;5.10;;;;;;;-146.27;86.44;83469.09;5042518;28;20024;-71
2023/11/04 02:40:16;;;;;;;10.63;5.55;;;;;;;-146.27;86.79;83509.28;5031440;28;20551;-71
2023/11/04 02:42:41;;;;;;;9.20;4.50;;;;;;;-146.27;87.17;83483.16;5042753;28;20108;-71
2023/11/04 02:45:07;;;;;;;9.02;4.88;;;;;;;-146.27;86.21;83471.09;5042541;28;20025;-71
2023/11/04 02:47:32;;;;;;;8.43;4.80;;;;;;;-146.27;87.00;83537.41;5043069;28;20037;-71
2023/11/04 02:49:58;;;;;;;7.50;5.03;;;;;;;-146.27;86.44;83461.06;5027497;28;20029;-71
2023/11/04 02:52:24;;;;;;;9.60;5.13;;;;;;;-146.27;86.79;83483.16;5022385;28;20367;-68
2023/11/04 02:54:49;;;;;;;6.38;4.32;;;;;;;-146.27;85.70;83432.91;5024995;28;20021;-71
2023/11/04 02:57:15;;;;;;;6.65;4.68;;;;;;;-146.27;85.97;83440.94;5041583;28;20029;-68
2023/11/04 02:59:41;;;;;;;7.60;4.55;;;;;;;-146.27;85.82;83469.09;5024164;28;20114;-69
2023/11/04 03:02:06;;;;;;;7.40;4.25;;;;;;;-146.27;85.66;83438.94;5010170;28;20045;-70
2023/11/04 03:04:32;;;;;;;6.32;3.67;;;;;;;-146.27;84.93;83455.03;5010173;28;20045;-69
2023/11/04 03:06:58;;;;;;;9.52;5.20;;;;;;;-146.27;85.03;83485.16;5017340;28;20053;-67
2023/11/04 03:09:23;;;;;;;9.18;4.32;;;;;;;-146.27;85.42;83432.91;5012841;28;20034;-68
2023/11/04 03:11:48;;;;;;;9.13;4.55;;;;;;;-146.27;87.07;83569.56;5019738;28;20489;-70
2023/11/04 03:14:14;;;;;;;8.15;4.25;;;;;;;-146.27;86.45;83549.47;5023283;28;20025;-69
2023/11/04 03:16:40;;;;;;;11.35;4.15;;;;;;;-146.27;85.67;83497.22;5029672;28;20179;-69
2023/11/04 03:19:05;;;;;;;9.02;4.00;;;;;;;-146.27;85.07;83489.19;5023951;28;20037;-67
2023/11/04 03:21:31;;;;;;;11.23;4.70;;;;;;;-146.27;85.71;83513.28;5009279;28;20501;-70
2023/11/04 03:23:56;;;;;;;11.07;4.18;;;;;;;-146.27;86.02;83541.41;5007965;28;20099;-69
2023/11/04 03:26:22;;;;;;;15.40;4.68;;;;;;;-146.27;86.17;83515.31;5012788;28;20044;-70
2023/11/04 03:28:47;;;;;;;7.80;4.10;;;;;;;-146.27;86.48;83545.44;5025051;28;20040;-70
2023/11/04 03:31:12;;;;;;;10.55;4.22;;;;;;;-146.27;87.13;83571.56;5030095;28;20025;-68
2023/11/04 03:33:38;;;;;;;8.52;4.05;;;;;;;-146.27;87.03;83521.34;5032781;28;20048;-69
2023/11/04 03:36:04;;;;;;;7.53;4.45;;;;;;;-146.27;87.51;83605.72;5038250;28;20493;-70
2023/11/04 03:38:29;;;;;;;7.53;4.53;;;;;;;-146.27;86.78;83541.41;5026004;28;20021;-70
2023/11/04 03:40:55;;;;;;;12.50;4.68;;;;;;;-146.27;87.32;83559.50;5038948;28;20638;-68
2023/11/04 03:43:20;;;;;;;12.85;6.05;;;;;;;-146.27;86.78;83529.38;5041289;28;20076;-70
2023/11/04 03:45:46;;;;;;;12.63;5.13;;;;;;;-146.27;87.01;83551.47;5034619;28;20589;-69
2023/11/04 03:48:11;;;;;;;10.82;5.20;;;;;;;-146.27;86.94;83551.47;5028350;28;20029;-69
2023/11/04 03:50:37;;;;;;;10.35;5.57;;;;;;;-146.27;87.13;83529.38;5041985;28;20536;-70
2023/11/04 03:53:02;;;;;;;9.98;6.22;;;;;;;-146.27;87.55;83523.34;5044698;28;20034;-70
2023/11/04 03:55:27;;;;;;;9.57;6.18;;;;;;;-146.27;88.18;83549.47;5035590;28;20033;-70
2023/11/04 03:57:53;;;;;;;11.48;6.60;;;;;;;-146.27;87.89;83533.38;5048525;28;20025;-68
2023/11/04 04:00:19;;;;;;;10.73;7.07;;;;;;;-146.27;86.80;83517.31;5033757;28;20476;-72
2023/11/04 04:02:45;;;;;;;8.68;5.82;;;;;;;-146.27;86.55;83497.22;5034550;28;20070;-72
2023/11/04 04:05:10;;;;;;;12.20;5.85;;;;;;;-146.27;86.28;83523.34;5025535;28;20025;-72
2023/11/04 04:07:36;;;;;;;14.70;5.63;;;;;;;-146.27;87.45;83571.56;5028606;28;20432;-72
2023/11/04 04:10:01;;;;;;;20.38;5.00;;;;;;;-146.27;87.64;83537.41;5022256;28;20028;-73
2023/11/04 04:12:27;;;;;;;9.75;5.63;;;;;;;-146.27;87.26;83541.41;5029359;28;20701;-72
2023/11/04 04:14:52;;;;;;;9.60;5.93;;;;;;;-146.27;87.69;83573.56;5027928;28;20041;-72
2023/11/04 04:17:17;;;;;;;10.82;4.88;;;;;;;-146.27;87.05;83521.34;5017921;28;20064;-72
2023/11/04 04:19:43;;;;;;;6.78;5.25;;;;;;;-146.27;86.92;83527.34;5021897;28;20553;-72
2023/11/04 04:22:09;;;;;;;7.55;5.00;;;;;;;-146.27;86.37;83517.31;5019858;28;20030;-73
2023/11/04 04:24:38;;;;;;;13.77;5.68;;;;;;;-146.27;87.23;83529.38;5026826;28;20063;-73
2023/11/04 04:27:04;;;;;;;9.35;5.35;;;;;;;-146.27;86.84;83529.38;5041920;28;20104;-72
2023/11/04 04:29:31;;;;;;;6.88;4.97;;;;;;;-146.27;86.70;83537.41;5029984;28;20025;-72
2023/11/04 04:31:56;;;;;;;8.77;5.25;;;;;;;-146.27;86.57;83537.41;5048308;28;20025;-72
2023/11/04 04:34:22;;;;;;;10.65;5.28;;;;;;;-146.27;87.43;83583.63;5025789;28;20037;-72
2023/11/04 04:36:47;;;;;;;12.70;5.70;;;;;;;-146.27;85.86;83515.31;5034630;28;20029;-73
2023/11/04 04:39:13;;;;;;;8.93;4.95;;;;;;;-146.27;86.83;83527.34;5027888;28;20026;-73
2023/11/04 04:41:38;;;;;;;8.35;5.30;;;;;;;-146.27;86.10;83521.34;5023374;28;20028;-73
2023/11/04 04:44:04;;;;;;;9.73;5.75;;;;;;;-146.27;85.81;83493.19;5033339;28;20022;-70
2023/11/04 04:46:31;;;;;;;13.73;5.60;;;;;;;-146.27;85.70;83497.22;5029619;28;20032;-72
2023/11/04 04:48:57;;;;;;;8.77;6.00;;;;;;;-146.27;86.16;83513.28;5039541;28;20037;-71
2023/11/04 04:51:22;;;;;;;10.80;6.03;;;;;;;-146.27;85.69;83475.13;5028535;28;20032;-71
2023/11/04 04:53:48;;;;;;;16.15;6.05;;;;;;;-146.27;85.72;83481.16;5034614;28;20037;-73
2023/11/04 04:56:16;;;;;;;17.13;5.55;;;;;;;-146.27;85.47;83465.06;5032784;28;20045;-72
2023/11/04 04:58:42;;;;;;;11.07;5.18;;;;;;;-146.27;86.34;83543.44;5027747;28;20034;-72
2023/11/04 05:01:20;;;;;;;13.07;5.97;;;;;;;-146.27;86.65;83517.31;5021941;28;20151;-72
2023/11/04 05:03:46;;;;;;;12.18;5.90;;;;;;;-146.27;86.96;83543.44;5012764;28;20489;-72
2023/11/04 05:06:11;;;;;;;8.90;5.00;;;;;;;-146.27;86.40;83561.53;5011398;28;20033;-72
2023/11/04 05:08:37;;;;;;;17.02;6.38;;;;;;;-146.27;87.06;83627.81;5015300;28;20030;-72
2023/11/04 05:11:03;;;;;;;12.93;6.18;;;;;;;-146.27;87.70;83615.78;5024316;28;20033;-69
2023/11/04 05:13:29;;;;;;;12.00;6.60;;;;;;;-146.27;87.41;83557.50;5020736;28;20029;-68
2023/11/04 05:15:55;;;;;;;11.60;5.63;;;;;;;-146.27;85.81;83535.41;5015765;28;20393;-70
2023/11/04 05:18:20;;;;;;;7.93;6.22;;;;;;;-146.27;86.06;83591.66;5025811;28;20056;-70
2023/11/04 05:20:46;;;;;;;7.65;6.13;;;;;;;-146.27;85.31;83513.28;5029311;28;20033;-69
2023/11/04 05:23:12;;;;;;;11.15;6.05;;;;;;;-146.27;85.56;83545.44;5029056;28;20155;-69
2023/11/04 05:25:38;;;;;;;9.63;5.43;;;;;;;-146.27;85.83;83561.53;5029129;28;20512;-69
2023/11/04 05:28:04;;;;;;;13.35;5.80;;;;;;;-146.27;84.64;83489.19;5032189;28;20048;-68
2023/11/04 05:30:30;;;;;;;13.13;6.40;;;;;;;-146.27;85.19;83513.28;5030010;28;20048;-70
2023/11/04 05:32:58;;;;;;;12.63;5.38;;;;;;;-146.27;85.06;83525.34;5032138;28;20381;-70
2023/11/04 05:35:23;;;;;;;10.45;5.22;;;;;;;-146.27;85.27;83543.44;5030136;28;20500;-69
2023/11/04 05:37:49;;;;;;;10.65;5.55;;;;;;;-146.27;85.34;83559.50;5042884;28;20053;-70
2023/11/04 05:40:14;;;;;;;17.02;5.53;;;;;;;-146.27;86.32;83541.41;5035382;28;20025;-69
2023/11/04 05:42:39;;;;;;;10.82;5.55;;;;;;;-146.27;85.84;83601.72;5035478;28;20379;-70
2023/11/04 05:45:05;;;;;;;13.02;6.00;;;;;;;-146.27;85.96;83565.53;5031419;28;20037;-69
2023/11/04 05:47:33;;;;;;;17.35;5.65;;;;;;;-146.27;86.49;83581.59;5044672;28;20482;-69
2023/11/04 05:49:59;;;;;;;12.60;5.72;;;;;;;-146.27;86.79;83559.50;5026838;28;20041;-70
2023/11/04 05:52:25;;;;;;;13.85;6.07;;;;;;;-146.27;85.48;83511.28;5024098;28;20039;-70
2023/11/04 05:54:51;;;;;;;14.32;6.03;;;;;;;-146.27;85.48;83549.47;5026162;28;20103;-69
2023/11/04 05:57:16;;;;;;;10.65;5.20;;;;;;;-146.27;84.72;83527.34;5017597;28;20029;-69
2023/11/04 05:59:44;;;;;;;8.77;5.05;;;;;;;-146.27;84.50;83531.38;5031384;28;20029;-71
2023/11/04 06:02:09;;;;;;;9.50;4.70;;;;;;;-146.27;84.61;83523.34;5027670;28;20063;-69
2023/11/04 06:04:35;;;;;;;10.63;5.70;;;;;;;-146.27;84.04;83541.41;5025517;28;20501;-70
2023/11/04 06:07:00;;;;;;;11.70;5.43;;;;;;;-146.27;83.94;83465.06;5045201;28;20108;-69
2023/11/04 06:09:26;;;;;;;8.15;4.40;;;;;;;-146.27;84.48;83521.34;5038619;28;20029;-72
2023/11/04 06:11:51;;;;;;;13.68;4.57;;;;;;;-146.27;84.39;83509.28;5018580;28;20042;-69
2023/11/04 06:14:17;;;;;;;6.70;4.05;;;;;;;-146.27;84.19;83495.22;5027716;28;20024;-69
2023/11/04 06:16:43;;;;;;;11.27;4.68;;;;;;;-146.27;85.09;83511.28;5041274;28;20056;-70
2023/11/04 06:19:08;;;;;;;7.53;4.75;;;;;;;-146.27;84.66;83533.38;5027438;28;20432;-69
2023/11/04 06:21:34;;;;;;;8.48;4.50;;;;;;;-146.27;84.88;83545.44;5031085;28;20021;-72
2023/11/04 06:23:59;;;;;;;9.20;4.53;;;;;;;-146.27;85.00;83525.34;5032529;28;20021;-73
2023/11/04 06:26:25;;;;;;;16.25;5.30;;;;;;;-146.27;85.16;83575.59;5047443;28;20075;-72
2023/11/04 06:28:50;;;;;;;14.07;5.32;;;;;;;-146.27;85.09;83599.69;5034534;28;20021;-72
2023/11/04 06:31:16;;;;;;;13.30;5.22;;;;;;;-146.27;84.38;83567.53;5022141;28;20057;-72
2023/11/04 06:33:42;;;;;;;13.73;4.45;;;;;;;-146.27;83.83;83533.38;5035407;28;20393;-71
2023/11/04 06:36:08;;;;;;;13.38;4.95;;;;;;;-146.27;83.99;83495.22;5042892;28;20029;-72
2023/11/04 06:38:33;;;;;;;13.43;4.20;;;;;;;-146.27;83.26;83569.56;5030249;28;20919;-71
2023/11/04 06:40:59;;;;;;;8.15;4.10;;;;;;;-146.27;83.20;83483.16;5048271;28;20017;-72
2023/11/04 06:43:28;;;;;;;10.88;4.03;;;;;;;-146.27;83.83;83587.63;5037038;28;20056;-72
2023/11/04 06:45:53;;;;;;;10.32;3.67;;;;;;;-146.27;83.05;83505.25;5031037;28;20029;-73
2023/11/04 06:48:19;;;;;;;8.68;3.85;;;;;;;-146.27;83.60;83533.38;5032681;28;20393;-72
2023/11/04 06:50:45;;;;;;;6.07;3.88;;;;;;;-146.27;82.59;83505.25;5036002;28;20026;-72
2023/11/04 06:53:10;;;;;;;9.10;3.70;;;;;;;-146.27;83.25;83525.34;5026602;28;20018;-72
2023/11/04 06:55:36;;;;;;;8.00;3.70;;;;;;;-146.27;82.63;83457.03;5030385;28;20037;-72
2023/11/04 06:58:01;;;;;;;9.77;3.35;;;;;;;-146.27;82.88;83549.47;5025280;28;20075;-71
2023/11/04 07:00:27;;;;;;;7.85;3.72;;;;;;;-146.27;82.68;83513.28;5026756;28;20044;-71
2023/11/04 07:02:52;;;;;;;16.48;3.70;;;;;;;-146.27;83.00;83567.53;5022481;28;20769;-71
2023/11/04 07:05:18;;;;;;;9.98;3.25;;;;;;;-146.27;82.11;83497.22;5034225;28;20033;-72
2023/11/04 07:07:43;;;;;;;14.50;3.03;;;;;;;-146.27;82.55;83571.56;5029822;28;20703;-72
2023/11/04 07:10:12;;;;;;;10.25;3.25;;;;;;;-146.27;81.73;83531.38;5030028;28;20021;-72
2023/11/04 07:12:38;;;;;;;11.63;3.33;;;;;;;-146.27;81.00;83449.00;5027467;28;20025;-72
2023/11/04 07:15:04;;;;;;;7.55;2.90;;;;;;;-146.27;80.82;83457.03;5028595;28;20028;-72
2023/11/04 07:17:30;;;;;;;13.07;4.10;;;;;;;-146.27;82.12;83533.38;5024104;28;20056;-71
2023/11/04 07:19:57;;;;;;;7.60;4.18;;;;;;;-146.27;81.38;83422.88;5013097;28;20746;-72
2023/11/04 07:22:23;;;;;;;11.65;3.95;;;;;;;-146.27;81.51;83442.97;5025936;28;20025;-72
2023/11/04 07:24:48;;;;;;;9.88;3.83;;;;;;;-146.27;81.65;83489.19;5028409;28;20041;-72
2023/11/04 07:27:14;;;;;;;13.02;4.57;;;;;;;-146.27;81.60;83509.28;5023849;28;20066;-71
2023/11/04 07:29:40;;;;;;;9.07;3.70;;;;;;;-146.27;81.10;83404.78;5021720;28;20037;-71
2023/11/04 07:32:06;;;;;;;9.70;4.47;;;;;;;-146.27;81.54;83489.19;5025230;28;20053;-70
2023/11/04 07:34:32;;;;;;;13.38;4.15;;;;;;;-146.27;80.59;83455.03;5020908;28;20036;-70
2023/11/04 07:36:57;;;;;;;9.55;3.80;;;;;;;-146.27;80.97;83485.16;5016266;28;20029;-71
2023/11/04 07:39:23;;;;;;;8.43;3.53;;;;;;;-146.27;80.37;83418.84;5027822;28;20025;-71
2023/11/04 07:41:48;;;;;;;6.75;3.53;;;;;;;-146.27;79.97;83392.72;5032922;28;20517;-72
2023/11/04 07:44:14;;;;;;;13.35;4.68;;;;;;;-146.27;80.19;83436.94;5028523;28;20052;-70
2023/11/04 07:46:40;;;;;;;8.98;3.45;;;;;;;-146.27;80.92;83477.13;5029250;28;20025;-71
2023/11/04 07:49:06;;;;;;;13.70;4.30;;;;;;;-146.27;81.03;83471.09;5028715;28;20112;-72
2023/11/04 07:51:31;;;;;;;10.93;4.70;;;;;;;-146.27;80.61;83557.50;5029521;28;20056;-72
2023/11/04 07:53:57;;;;;;;10.27;4.03;;;;;;;-146.27;80.56;83418.84;5023981;28;20022;-71
2023/11/04 07:56:22;;;;;;;9.20;3.90;;;;;;;-146.27;80.27;83400.78;5029339;28;20120;-71
2023/11/04 07:58:48;;;;;;;11.45;4.00;;;;;;;-146.27;79.77;83360.59;5016605;28;20425;-72
2023/11/04 08:01:19;;;;;;;11.30;3.75;;;;;;;-146.27;79.40;83410.81;5035975;28;20028;-71
2023/11/04 08:03:45;;;;;;;8.85;4.18;;;;;;;-146.27;79.36;83386.69;5029502;28;20037;-72
2023/11/04 08:06:11;;;;;;;10.60;4.25;;;;;;;-146.27;80.18;83587.63;5028609;28;20075;-74
2023/11/04 08:08:37;;;;;;;9.23;3.70;;;;;;;-146.27;80.28;83465.06;5029858;28;20591;-73
2023/11/04 08:11:03;;;;;;;15.82;4.28;;;;;;;-146.27;79.70;83432.91;5037258;28;20091;-69
2023/11/04 08:13:28;;;;;;;7.28;3.80;;;;;;;-146.27;80.00;83477.13;5026623;28;20780;-72
2023/11/04 08:15:54;;;;;;;12.18;4.35;;;;;;;-146.27;79.85;83432.91;5028208;28;20056;-71
2023/11/04 08:18:22;;;;;;;7.80;4.65;;;;;;;-146.27;79.15;83444.97;5028081;28;20139;-72
2023/11/04 08:20:48;;;;;;;11.45;4.50;;;;;;;-146.27;78.87;83412.81;5042482;28;20078;-72
2023/11/04 08:23:14;;;;;;;11.48;4.18;;;;;;;-146.27;79.04;83406.78;5036318;28;20018;-71
2023/11/04 08:25:39;;;;;;;15.07;4.20;;;;;;;-146.27;78.57;83394.75;5033066;28;20036;-72
2023/11/04 08:28:04;;;;;;;13.77;4.38;;;;;;;-146.27;79.39;83469.09;5028566;28;20029;-71
2023/11/04 08:30:30;;;;;;;9.82;3.70;;;;;;;-146.27;79.53;83444.97;5029717;28;20028;-71
2023/11/04 08:32:55;;;;;;;15.68;4.25;;;;;;;-146.27;79.30;83473.09;5030713;28;20537;-71
2023/11/04 08:35:21;;;;;;;9.90;3.38;;;;;;;-146.27;79.08;83404.78;5027480;28;20071;-70
2023/11/04 08:37:47;;;;;;;8.55;3.17;;;;;;;-146.27;78.50;83416.84;5027999;28;20052;-70
2023/11/04 08:40:13;;;;;;;15.68;3.65;;;;;;;-146.27;78.00;83412.81;5026161;28;20017;-72
2023/11/04 08:42:38;;;;;;;7.97;2.30;;;;;;;-146.27;77.92;83406.78;5030809;28;20056;-71
2023/11/04 08:45:05;;;;;;;13.45;2.80;;;;;;;-146.27;78.04;83378.66;5032852;28;20029;-72
2023/11/04 08:47:31;;;;;;;6.97;2.85;;;;;;;-146.27;77.52;83344.50;5029731;28;20026;-71
2023/11/04 08:49:56;;;;;;;8.73;2.50;;;;;;;-146.27;77.45;83418.84;5031235;28;20057;-72
2023/11/04 08:52:21;;;;;;;11.82;2.60;;;;;;;-146.27;78.29;83406.78;5025369;28;20417;-71
2023/11/04 08:54:47;;;;;;;7.07;2.30;;;;;;;-146.27;77.90;83356.56;5030662;28;20025;-71
2023/11/04 08:57:12;;;;;;;10.48;2.42;;;;;;;-146.27;77.79;83388.72;5033959;28;20111;-72
2023/11/04 08:59:37;;;;;;;10.50;2.00;;;;;;;-146.27;77.21;83358.56;5042607;28;20024;-70
2023/11/04 09:02:03;;;;;;;6.43;1.80;;;;;;;-146.27;77.22;83296.28;5035289;28;20091;-71
2023/11/04 09:04:29;;;;;;;8.63;1.77;;;;;;;-146.27;76.69;83306.34;5037382;28;20034;-71
2023/11/04 09:06:55;;;;;;;12.88;1.90;;;;;;;-146.27;76.85;83324.41;5032628;28;20029;-71
2023/11/04 09:09:22;;;;;;;5.30;1.65;;;;;;;-146.27;76.66;83324.41;5030008;28;20030;-71
2023/11/04 09:11:48;;;;;;;5.32;1.60;;;;;;;-146.27;76.00;83298.28;5037204;28;20029;-72
2023/11/04 09:14:13;;;;;;;6.93;1.50;;;;;;;-146.27;75.94;83308.34;5038043;28;20159;-71
2023/11/04 09:16:38;;;;;;;10.02;2.13;;;;;;;-146.27;76.63;83302.31;5025026;28;20545;-70
2023/11/04 09:19:04;;;;;;;6.22;1.67;;;;;;;-146.27;76.33;83284.22;5028139;28;20037;-71
2023/11/04 09:21:29;;;;;;;6.70;1.30;;;;;;;-146.27;76.18;83278.19;5035122;28;20020;-71
2023/11/04 09:23:55;;;;;;;9.02;1.60;;;;;;;-146.27;76.74;83374.66;5046333;28;20053;-69
2023/11/04 09:26:20;;;;;;;5.75;1.63;;;;;;;-146.27;77.18;83438.94;5038460;28;20079;-70
2023/11/04 09:28:49;;;;;;;8.57;1.88;;;;;;;-146.27;76.58;83340.50;5031231;28;20037;-70
2023/11/04 09:31:18;;;;;;;7.75;1.50;;;;;;;-146.27;75.45;83316.38;5025476;28;20025;-69
2023/11/04 09:33:43;;;;;;;4.43;1.23;;;;;;;-146.27;74.92;83276.19;5020855;28;20021;-70
2023/11/04 09:36:12;;;;;;;6.97;2.13;;;;;;;-146.27;74.69;83260.13;5040251;28;20119;-71
2023/11/04 09:38:38;;;;;;;7.53;1.80;;;;;;;-146.27;74.22;83286.25;5032288;28;20049;-70
2023/11/04 09:41:07;;;;;;;6.70;1.85;;;;;;;-146.27;74.99;83304.31;5041620;28;20025;-70
2023/11/04 09:43:34;;;;;;;8.02;1.60;;;;;;;-146.27;75.30;83328.44;5025206;28;20021;-71
2023/11/04 09:46:01;;;;;;;6.28;1.27;;;;;;;-146.27;74.29;83272.19;5030173;28;20056;-71
2023/11/04 09:48:29;;;;;;;10.68;2.03;;;;;;;-146.27;73.75;83252.09;5029970;28;20033;-72
2023/11/04 09:51:00;;;;;;;13.63;1.35;;;;;;;-146.27;73.56;83312.34;5029627;28;20036;-68
2023/11/04 09:53:27;;;;;;;5.05;1.17;;;;;;;-146.27;75.08;83354.56;5043655;28;20508;-68
2023/11/04 09:55:54;;;;;;;3.55;1.20;;;;;;;-146.27;74.48;83306.34;5026132;28;20568;-69
2023/11/04 09:58:20;;;;;;;8.27;1.75;;;;;;;-146.27;74.85;83336.47;5049303;28;20513;-68
2023/11/04 10:00:51;;;;;;;4.60;1.60;;;;;;;-146.27;74.79;83280.22;5043872;28;20139;-68
2023/11/04 10:03:17;;;;;;;7.85;2.08;;;;;;;-146.27;73.56;83262.13;5028846;28;20645;-68
2023/11/04 10:05:44;;;;;;;6.55;1.30;;;;;;;-146.27;73.85;83296.28;5035087;28;20029;-68
2023/11/04 10:08:11;;;;;;;5.75;1.70;;;;;;;-146.27;73.73;83256.09;5039264;28;20112;-68
2023/11/04 10:10:36;;;;;;;5.05;1.58;;;;;;;-146.27;74.10;83340.50;5027769;28;20030;-67
2023/11/04 10:13:04;;;;;;;9.63;1.52;;;;;;;-146.27;73.44;83282.22;5030057;28;20040;-68
2023/11/04 10:15:30;;;;;;;7.15;1.63;;;;;;;-146.27;73.01;83268.16;5029761;28;20032;-69
2023/11/04 10:17:56;;;;;;;8.80;1.48;;;;;;;-146.27;72.39;83256.09;5030629;28;20045;-68
2023/11/04 10:20:22;;;;;;;4.82;1.20;;;;;;;-146.27;72.94;83264.13;5036181;28;20112;-67
2023/11/04 10:22:48;;;;;;;7.53;1.40;;;;;;;-146.27;73.08;83248.06;5036944;28;20588;-67
2023/11/04 10:25:14;;;;;;;4.15;1.20;;;;;;;-146.27;73.10;83260.13;5026021;28;20028;-68
2023/11/04 10:27:40;;;;;;;4.82;1.42;;;;;;;-146.27;72.96;83211.91;5034097;28;20059;-68
2023/11/04 10:30:10;;;;;;;5.82;1.70;;;;;;;-146.27;72.70;83207.88;5020471;28;20029;-69
2023/11/04 10:32:36;;;;;;;9.88;1.30;;;;;;;-146.27;73.13;83236.00;5036869;28;20449;-68
2023/11/04 10:35:11;;;;;;;5.32;1.20;;;;;;;-146.27;73.85;83302.31;5028645;28;20022;-68
2023/11/04 10:37:37;;;;;;;4.32;1.30;;;;;;;-146.27;73.79;83272.19;5022258;28;20026;-68
2023/11/04 10:40:07;;;;;;;10.88;1.38;;;;;;;-146.27;73.05;83234.00;5028220;28;20018;-68
2023/11/04 10:42:44;;;;;;;6.65;2.38;;;;;;;-146.27;72.98;83223.94;5031283;28;20453;-68
2023/11/04 10:45:18;;;;;;;3.25;1.42;;;;;;;-146.27;73.31;83248.06;5027642;28;20037;-68
2023/11/04 10:47:47;;;;;;;;;;;;;;;-146.27;73.86;83348.53;5038186;28;20179;-68
2023/11/04 10:50:15;;;;;;;3.95;0.90;;;;;;;-146.27;72.96;83322.41;5016473;28;19971;-68
2023/11/04 10:53:13;;;;;;;2.53;1.30;;;;;;;-146.27;72.92;83252.09;5023643;28;20083;-68
2023/11/04 10:56:31;;;;;;;6.55;1.77;;;;;;;-146.27;74.34;83292.28;5008256;28;20078;-68
2023/11/04 10:59:06;;;;;;;8.02;1.30;;;;;;;-146.27;74.70;83358.56;5016609;28;20121;-67
2023/11/04 11:01:32;;;;;;;4.70;1.30;;;;;;;-146.27;74.70;83426.88;5032296;28;20124;-71
2023/11/04 11:04:01;;;;;;;5.63;1.50;;;;;;;-146.27;73.31;83316.38;5023921;28;20520;-70
2023/11/04 11:06:27;;;;;;;2.20;1.10;;;;;;;-146.27;73.44;83350.53;5028866;28;20037;-70
2023/11/04 11:08:53;;;;;;;2.97;0.90;;;;;;;-146.27;73.40;83314.38;5022172;28;20033;-70
2023/11/04 11:11:27;;;;;;;4.93;0.82;;;;;;;-146.27;73.84;83350.53;5024832;28;20068;-70